createdAt,value
2018-09-08T00:00:11.737Z,17.86
2018-09-08T00:02:41.252Z,17.83
2018-09-08T00:05:16.366Z,17.87
2018-09-08T00:07:45.746Z,17.88
2018-09-08T00:10:14.451Z,17.85
2018-09-08T00:12:43.115Z,17.78
2018-09-08T00:15:17.031Z,17.76
2018-09-08T00:17:51.004Z,17.77
2018-09-08T00:20:25.071Z,17.72
2018-09-08T00:22:58.746Z,17.61
2018-09-08T00:25:32.467Z,17.53
2018-09-08T00:28:05.447Z,17.51
2018-09-08T00:30:35.031Z,17.45
2018-09-08T00:33:03.736Z,17.42
2018-09-08T00:35:33.856Z,17.42
2018-09-08T00:38:02.736Z,17.41
2018-09-08T00:40:31.452Z,17.35
2018-09-08T00:43:00.131Z,17.36
2018-09-08T00:45:28.780Z,17.31
2018-09-08T00:47:57.383Z,17.25
2018-09-08T00:50:25.972Z,17.26
2018-09-08T00:52:55.609Z,17.22
2018-09-08T00:55:24.354Z,17.23
2018-09-08T00:57:53.007Z,17.22
2018-09-08T01:00:21.728Z,17.11
2018-09-08T01:02:50.385Z,17.05
2018-09-08T01:05:21.756Z,17.02
2018-09-08T01:07:50.376Z,16.97
2018-09-08T01:10:19.143Z,16.87
2018-09-08T01:12:47.784Z,16.76
2018-09-08T01:15:16.311Z,16.67
2018-09-08T01:17:45.180Z,16.56
2018-09-08T01:20:14.387Z,16.51
2018-09-08T01:22:43.071Z,16.43
2018-09-08T01:25:14.749Z,16.44
2018-09-08T01:27:44.133Z,16.45
2018-09-08T01:30:12.701Z,16.45
2018-09-08T01:32:41.408Z,16.38
2018-09-08T01:35:10.427Z,16.29
2018-09-08T01:37:39.277Z,16.20
2018-09-08T01:40:08.952Z,16.19
2018-09-08T01:42:37.752Z,16.21
2018-09-08T01:45:06.815Z,16.21
2018-09-08T01:47:35.681Z,16.18
2018-09-08T01:50:04.530Z,16.19
2018-09-08T01:52:33.321Z,16.21
2018-09-08T01:55:02.089Z,16.20
2018-09-08T01:57:30.903Z,16.20
2018-09-08T01:59:59.553Z,16.21
2018-09-08T02:02:29.079Z,16.20
2018-09-08T02:04:58.551Z,16.12
2018-09-08T02:07:27.259Z,16.07
2018-09-08T02:09:56.294Z,16.08
2018-09-08T02:12:25.471Z,16.12
2018-09-08T02:14:54.133Z,16.18
2018-09-08T02:17:22.800Z,16.18
2018-09-08T02:19:52.014Z,16.14
2018-09-08T02:22:20.592Z,16.11
2018-09-08T02:24:49.304Z,16.13
2018-09-08T02:27:17.964Z,16.13
2018-09-08T02:29:46.644Z,16.15
2018-09-08T02:32:15.474Z,16.18
2018-09-08T02:34:44.196Z,16.22
2018-09-08T02:37:13.218Z,16.22
2018-09-08T02:39:42.393Z,16.26
2018-09-08T02:42:11.092Z,16.30
2018-09-08T02:44:39.764Z,16.34
2018-09-08T02:47:08.577Z,16.33
2018-09-08T02:49:48.209Z,16.27
2018-09-08T02:52:17.256Z,16.24
2018-09-08T02:54:44.544Z,16.20
2018-09-08T02:57:12.702Z,16.22
2018-09-08T02:59:40.181Z,16.20
2018-09-08T03:02:07.524Z,16.17
2018-09-08T03:04:34.816Z,16.20
2018-09-08T03:07:06.229Z,16.25
2018-09-08T03:09:33.798Z,16.25
2018-09-08T03:12:01.079Z,16.27
2018-09-08T03:14:29.266Z,16.30
2018-09-08T03:16:56.559Z,16.29
2018-09-08T03:19:23.875Z,16.23
2018-09-08T03:21:51.151Z,16.12
2018-09-08T03:24:18.423Z,16.05
2018-09-08T03:26:46.347Z,16.07
2018-09-08T03:29:13.632Z,16.08
2018-09-08T03:31:40.922Z,16.03
2018-09-08T03:34:08.231Z,15.99
2018-09-08T03:36:36.292Z,16.00
2018-09-08T03:39:04.087Z,15.94
2018-09-08T03:41:31.407Z,15.97
2018-09-08T03:43:58.699Z,16.00
2018-09-08T03:46:26.259Z,15.96
2018-09-08T03:48:53.604Z,15.98
2018-09-08T03:51:21.776Z,16.07
2018-09-08T03:53:49.062Z,16.09
2018-09-08T03:56:16.414Z,16.08
2018-09-08T03:58:43.743Z,16.14
2018-09-08T04:01:11.030Z,16.18
2018-09-08T04:03:39.633Z,16.14
2018-09-08T04:06:08.413Z,16.09
2018-09-08T04:08:37.129Z,16.05
2018-09-08T04:11:06.138Z,16.08
2018-09-08T04:13:34.980Z,16.11
2018-09-08T04:16:03.892Z,16.16
2018-09-08T04:18:32.604Z,16.22
2018-09-08T04:21:01.257Z,16.23
2018-09-08T04:23:29.944Z,16.17
2018-09-08T04:25:58.968Z,16.22
2018-09-08T04:28:27.607Z,16.20
2018-09-08T04:30:56.155Z,16.19
2018-09-08T04:33:24.679Z,16.22
2018-09-08T04:35:53.588Z,16.21
2018-09-08T04:38:22.476Z,16.17
2018-09-08T04:40:51.272Z,16.13
2018-09-08T04:43:20.034Z,16.16
2018-09-08T04:45:48.735Z,16.17
2018-09-08T04:48:17.612Z,16.21
2018-09-08T04:50:46.195Z,16.28
2018-09-08T04:53:15.158Z,16.29
2018-09-08T04:55:43.859Z,16.31
2018-09-08T04:58:12.565Z,16.38
2018-09-08T05:00:42.217Z,16.45
2018-09-08T05:03:11.354Z,16.45
2018-09-08T05:05:40.304Z,16.48
2018-09-08T05:08:08.857Z,16.44
2018-09-08T05:10:37.693Z,16.47
2018-09-08T05:13:06.517Z,16.49
2018-09-08T05:15:35.796Z,16.49
2018-09-08T05:18:04.468Z,16.50
2018-09-08T05:20:33.327Z,16.54
2018-09-08T05:23:02.838Z,16.56
2018-09-08T05:25:32.589Z,16.63
2018-09-08T05:28:01.261Z,16.60
2018-09-08T05:30:29.943Z,16.68
2018-09-08T05:32:58.663Z,16.78
2018-09-08T05:35:27.736Z,16.87
2018-09-08T05:37:56.440Z,16.92
2018-09-08T05:40:25.253Z,16.92
2018-09-08T05:42:54.776Z,16.81
2018-09-08T05:45:23.477Z,16.91
2018-09-08T05:47:52.185Z,17.02
2018-09-08T05:50:20.867Z,17.07
2018-09-08T05:52:49.546Z,17.10
2018-09-08T05:55:19.060Z,17.10
2018-09-08T05:57:47.783Z,17.07
2018-09-08T06:00:16.871Z,16.99
2018-09-08T06:02:45.551Z,16.93
2018-09-08T06:05:14.828Z,16.87
2018-09-08T06:07:43.518Z,16.79
2018-09-08T06:10:12.976Z,16.83
2018-09-08T06:12:41.499Z,16.92
2018-09-08T06:15:10.780Z,16.95
2018-09-08T06:17:39.680Z,16.86
2018-09-08T06:20:08.376Z,17.02
2018-09-08T06:22:37.799Z,17.08
2018-09-08T06:25:06.580Z,17.24
2018-09-08T06:27:35.100Z,17.43
2018-09-08T06:30:03.697Z,17.47
2018-09-08T06:32:32.617Z,17.57
2018-09-08T06:35:01.308Z,17.64
2018-09-08T06:37:30.224Z,17.73
2018-09-08T06:39:58.795Z,17.85
2018-09-08T06:42:27.736Z,17.98
2018-09-08T06:44:56.462Z,18.10
2018-09-08T06:47:25.199Z,18.21
2018-09-08T06:49:53.786Z,18.03
2018-09-08T06:52:22.535Z,18.12
2018-09-08T06:54:51.081Z,18.23
2018-09-08T06:57:20.477Z,18.47
2018-09-08T06:59:49.057Z,18.72
2018-09-08T07:02:18.146Z,18.78
2018-09-08T07:04:47.080Z,18.77
2018-09-08T07:07:15.816Z,18.75
2018-09-08T07:09:44.951Z,18.94
2018-09-08T07:12:13.836Z,19.04
2018-09-08T07:14:43.104Z,19.17
2018-09-08T07:21:17.096Z,19.46
2018-09-08T07:23:45.883Z,19.55
2018-09-08T07:26:14.520Z,19.55
2018-09-08T07:28:43.402Z,19.55
2018-09-08T07:31:14.203Z,19.68
2018-09-08T07:33:42.834Z,19.74
2018-09-08T07:36:11.744Z,19.80
2018-09-08T07:38:40.290Z,19.60
2018-09-08T07:41:09.671Z,19.55
2018-09-08T07:43:39.176Z,19.61
2018-09-08T07:46:08.126Z,19.56
2018-09-08T07:48:36.789Z,19.62
2018-09-08T07:51:06.124Z,19.76
2018-09-08T07:53:34.797Z,19.99
2018-09-08T07:56:04.777Z,19.98
2018-09-08T07:58:40.078Z,20.14
2018-09-08T08:01:08.807Z,20.03
2018-09-08T08:03:37.502Z,20.21
2018-09-08T08:06:06.519Z,20.30
2018-09-08T08:08:35.289Z,20.31
2018-09-08T08:11:04.007Z,20.18
2018-09-08T08:13:32.620Z,20.50
2018-09-08T08:16:01.532Z,20.71
2018-09-08T08:18:30.265Z,20.57
2018-09-08T08:20:58.864Z,20.49
2018-09-08T08:23:27.397Z,20.64
2018-09-08T08:25:56.071Z,20.80
2018-09-08T08:28:25.339Z,20.77
2018-09-08T08:30:54.027Z,21.02
2018-09-08T08:33:22.730Z,21.22
2018-09-08T08:35:51.574Z,21.32
2018-09-08T08:38:20.332Z,21.41
2018-09-08T08:40:48.972Z,21.52
2018-09-08T08:43:17.524Z,21.62
2018-09-08T08:45:46.160Z,21.52
2018-09-08T08:48:15.071Z,21.43
2018-09-08T08:50:54.736Z,21.33
2018-09-08T08:53:34.429Z,21.50
2018-09-08T08:56:03.000Z,21.55
2018-09-08T08:58:32.407Z,21.85
2018-09-08T09:01:01.032Z,21.79
2018-09-08T09:03:29.741Z,21.87
2018-09-08T09:05:58.571Z,22.22
2018-09-08T09:08:27.505Z,22.46
2018-09-08T09:10:55.969Z,22.66
2018-09-08T09:13:24.670Z,22.84
2018-09-08T09:15:53.501Z,23.09
2018-09-08T09:18:33.230Z,23.01
2018-09-08T09:21:12.788Z,23.16
2018-09-08T09:24:32.544Z,22.98
2018-09-08T09:27:00.758Z,23.23
2018-09-08T09:29:29.416Z,23.48
2018-09-08T09:31:58.144Z,23.66
2018-09-08T09:34:27.815Z,23.83
2018-09-08T09:36:56.490Z,23.86
2018-09-08T09:39:25.199Z,24.03
2018-09-08T09:41:53.767Z,24.14
2018-09-08T09:44:22.961Z,23.92
2018-09-08T09:46:51.484Z,24.08
2018-09-08T09:49:20.236Z,23.93
2018-09-08T09:51:50.231Z,24.09
2018-09-08T09:54:18.936Z,24.34
2018-09-08T09:56:48.008Z,24.42
2018-09-08T09:59:16.949Z,24.08
2018-09-08T10:01:51.384Z,24.30
2018-09-08T10:04:20.227Z,24.42
2018-09-08T10:06:48.904Z,24.72
2018-09-08T10:09:22.276Z,24.76
2018-09-08T10:11:50.991Z,24.83
2018-09-08T10:14:19.911Z,24.76
2018-09-08T10:16:48.539Z,24.66
2018-09-08T10:19:18.093Z,24.89
2018-09-08T10:21:47.531Z,24.78
2018-09-08T10:24:16.194Z,25.29
2018-09-08T10:26:46.167Z,25.25
2018-09-08T10:29:14.816Z,25.65
2018-09-08T10:31:43.940Z,25.73
2018-09-08T10:34:12.701Z,25.51
2018-09-08T10:36:41.669Z,25.84
2018-09-08T10:39:10.699Z,25.95
2018-09-08T10:41:39.545Z,25.86
2018-09-08T10:44:09.040Z,25.67
2018-09-08T10:46:37.669Z,25.63
2018-09-08T10:49:06.392Z,25.45
2018-09-08T10:51:55.814Z,25.32
2018-09-08T10:54:25.424Z,25.20
2018-09-08T10:56:54.130Z,25.21
2018-09-08T10:59:22.827Z,25.14
2018-09-08T11:01:51.841Z,25.09
2018-09-08T11:04:20.379Z,25.06
2018-09-08T11:06:49.076Z,24.97
2018-09-08T11:09:18.598Z,24.88
2018-09-08T11:11:47.376Z,24.84
2018-09-08T11:14:16.062Z,24.85
2018-09-08T11:16:44.939Z,24.91
2018-09-08T11:19:14.914Z,24.92
2018-09-08T11:21:43.651Z,25.14
2018-09-08T11:24:13.148Z,25.45
2018-09-08T11:26:41.724Z,25.17
2018-09-08T11:29:10.739Z,25.13
2018-09-08T11:31:39.504Z,25.14
2018-09-08T11:34:08.215Z,25.04
2018-09-08T11:36:36.882Z,25.26
2018-09-08T11:39:06.548Z,25.45
2018-09-08T11:41:35.472Z,25.49
2018-09-08T11:44:04.173Z,25.15
2018-09-08T11:46:33.396Z,25.07
2018-09-08T11:49:03.399Z,25.03
2018-09-08T11:51:32.299Z,24.67
2018-09-08T11:54:01.359Z,24.52
2018-09-08T11:56:30.083Z,24.40
2018-09-08T11:58:58.840Z,24.52
2018-09-08T12:01:27.372Z,24.88
2018-09-08T12:03:56.292Z,25.34
2018-09-08T12:06:24.894Z,25.59
2018-09-08T12:08:54.498Z,25.57
2018-09-08T12:11:25.948Z,25.48
2018-09-08T12:13:55.996Z,25.35
2018-09-08T12:16:24.627Z,25.23
2018-09-08T12:18:53.300Z,25.04
2018-09-08T12:21:22.103Z,24.83
2018-09-08T12:23:51.304Z,24.64
2018-09-08T12:26:19.988Z,24.59
2018-09-08T12:28:48.589Z,24.51
2018-09-08T12:31:17.348Z,24.55
2018-09-08T12:33:46.033Z,24.62
2018-09-08T12:36:14.753Z,24.94
2018-09-08T12:38:43.472Z,25.13
2018-09-08T12:41:13.537Z,25.11
2018-09-08T12:43:42.388Z,25.28
2018-09-08T12:46:11.196Z,25.43
2018-09-08T12:48:40.038Z,25.72
2018-09-08T12:51:09.271Z,26.02
2018-09-08T12:53:37.952Z,26.16
2018-09-08T12:56:07.109Z,26.26
2018-09-08T12:58:35.748Z,26.12
2018-09-08T13:01:04.425Z,26.32
2018-09-08T13:03:33.273Z,26.40
2018-09-08T13:06:02.220Z,25.93
2018-09-08T13:08:31.084Z,25.62
2018-09-08T13:10:59.619Z,25.39
2018-09-08T13:13:28.249Z,25.21
2018-09-08T13:15:57.164Z,25.11
2018-09-08T13:18:26.440Z,24.82
2018-09-08T13:20:55.144Z,24.50
2018-09-08T13:23:23.727Z,24.55
2018-09-08T13:25:52.896Z,24.70
2018-09-08T13:28:22.257Z,24.81
2018-09-08T13:30:50.898Z,24.79
2018-09-08T13:33:19.537Z,25.00
2018-09-08T13:35:48.297Z,25.00
2018-09-08T13:38:16.964Z,25.17
2018-09-08T13:40:46.901Z,25.30
2018-09-08T13:43:15.552Z,25.65
2018-09-08T13:45:44.991Z,25.79
2018-09-08T13:48:13.723Z,25.71
2018-09-08T13:50:42.422Z,25.72
2018-09-08T13:53:13.888Z,26.04
2018-09-08T13:55:43.179Z,25.84
2018-09-08T13:58:11.763Z,25.96
2018-09-08T14:00:41.057Z,25.71
2018-09-08T14:03:10.424Z,25.71
2018-09-08T14:05:39.508Z,25.83
2018-09-08T14:08:11.639Z,26.08
2018-09-08T14:10:41.481Z,26.44
2018-09-08T14:13:10.192Z,26.08
2018-09-08T14:15:38.907Z,25.89
2018-09-08T14:18:07.604Z,25.94
2018-09-08T14:20:36.141Z,25.79
2018-09-08T14:23:04.945Z,25.81
2018-09-08T14:25:34.168Z,25.91
2018-09-08T14:28:03.564Z,25.85
2018-09-08T14:30:32.921Z,26.05
2018-09-08T14:33:01.748Z,26.28
2018-09-08T14:35:30.446Z,26.50
2018-09-08T14:37:59.154Z,26.52
2018-09-08T14:40:27.909Z,26.52
2018-09-08T14:42:57.329Z,26.64
2018-09-08T14:45:26.408Z,26.96
2018-09-08T14:47:55.524Z,27.23
2018-09-08T14:50:25.000Z,27.24
2018-09-08T14:52:53.721Z,27.25
2018-09-08T14:55:22.900Z,27.32
2018-09-08T14:57:51.542Z,27.52
2018-09-08T15:00:20.547Z,27.34
2018-09-08T15:02:50.197Z,27.14
2018-09-08T15:05:18.830Z,26.99
2018-09-08T15:07:50.412Z,27.22
2018-09-08T15:10:19.316Z,27.34
2018-09-08T15:12:47.951Z,27.17
2018-09-08T15:15:16.808Z,27.20
2018-09-08T15:17:45.771Z,27.32
2018-09-08T15:20:14.421Z,27.43
2018-09-08T15:22:43.303Z,27.47
2018-09-08T15:25:13.013Z,27.51
2018-09-08T15:27:42.499Z,27.53
2018-09-08T15:30:11.040Z,27.37
2018-09-08T15:32:39.880Z,27.37
2018-09-08T15:35:08.746Z,27.26
2018-09-08T15:37:37.336Z,27.28
2018-09-08T15:40:05.953Z,27.10
2018-09-08T15:42:35.427Z,26.96
2018-09-08T15:45:04.732Z,26.60
2018-09-08T15:47:33.429Z,26.20
2018-09-08T15:50:03.400Z,26.05
2018-09-08T15:52:32.221Z,25.96
2018-09-08T15:55:01.080Z,25.98
2018-09-08T15:57:29.924Z,26.05
2018-09-08T15:59:59.624Z,26.43
2018-09-08T16:02:28.609Z,26.39
2018-09-08T16:04:57.264Z,26.23
2018-09-08T16:07:26.327Z,26.43
2018-09-08T16:09:55.076Z,26.72
2018-09-08T16:12:25.006Z,27.07
2018-09-08T16:14:53.959Z,28.14
2018-09-08T16:23:17.910Z,33.74
2018-09-08T16:25:46.470Z,34.17
2018-09-08T16:28:15.487Z,34.26
2018-09-08T16:30:44.168Z,34.03
2018-09-08T16:33:12.895Z,34.00
2018-09-08T16:35:42.192Z,33.59
2018-09-08T16:38:10.897Z,31.29
2018-09-08T16:40:39.584Z,28.57
2018-09-08T16:43:08.208Z,26.62
2018-09-08T16:45:36.834Z,25.31
2018-09-08T16:48:05.603Z,24.29
2018-09-08T16:50:34.384Z,23.58
2018-09-08T16:53:03.599Z,23.14
2018-09-08T16:55:33.306Z,22.73
2018-09-08T16:58:02.688Z,22.23
2018-09-08T17:00:32.086Z,21.79
2018-09-08T17:03:00.595Z,21.40
2018-09-08T17:05:29.267Z,21.11
2018-09-08T17:07:58.541Z,20.86
2018-09-08T17:10:27.610Z,20.75
2018-09-08T17:12:56.317Z,20.72
2018-09-08T17:15:25.225Z,20.73
2018-09-08T17:17:54.496Z,20.74
2018-09-08T17:20:23.051Z,20.58
2018-09-08T17:22:51.737Z,20.42
2018-09-08T17:25:20.395Z,20.29
2018-09-08T17:27:48.929Z,20.25
2018-09-08T17:30:17.935Z,20.19
2018-09-08T17:32:46.583Z,20.15
2018-09-08T17:35:15.301Z,20.11
2018-09-08T17:37:43.816Z,20.08
2018-09-08T17:40:12.803Z,20.00
2018-09-08T17:42:41.581Z,19.99
2018-09-08T17:45:11.216Z,19.90
2018-09-08T17:47:40.540Z,19.74
2018-09-08T17:50:09.256Z,19.60
2018-09-08T17:52:38.012Z,19.40
2018-09-08T17:55:06.859Z,19.32
2018-09-08T17:57:35.803Z,19.17
2018-09-08T18:00:04.601Z,19.08
2018-09-08T18:02:33.298Z,19.01
2018-09-08T18:05:01.989Z,18.93
2018-09-08T18:07:30.657Z,18.82
2018-09-08T18:09:59.551Z,18.77
2018-09-08T18:12:28.204Z,18.73
2018-09-08T18:14:57.448Z,18.72
2018-09-08T18:17:26.210Z,18.64
2018-09-08T18:19:55.501Z,18.57
2018-09-08T18:22:24.293Z,18.53
2018-09-08T18:24:53.916Z,18.44
2018-09-08T18:27:22.727Z,18.37
2018-09-08T18:29:51.248Z,18.38
2018-09-08T18:32:19.968Z,18.42
2018-09-08T18:34:48.892Z,18.49
2018-09-08T18:37:17.416Z,18.41
2018-09-08T18:39:47.127Z,18.35
2018-09-08T18:42:15.899Z,18.25
2018-09-08T18:44:44.404Z,18.19
2018-09-08T18:47:13.905Z,18.08
2018-09-08T18:49:43.041Z,18.02
2018-09-08T18:52:12.487Z,17.81
2018-09-08T18:54:41.919Z,17.71
2018-09-08T18:57:11.936Z,17.57
2018-09-08T18:59:40.579Z,17.47
2018-09-08T19:02:10.187Z,17.38
2018-09-08T19:04:39.953Z,17.24
2018-09-08T19:07:08.808Z,17.18
2018-09-08T19:09:37.597Z,17.16
2018-09-08T19:12:06.279Z,17.14
2018-09-08T19:14:40.176Z,17.20
2018-09-08T19:17:09.257Z,17.18
2018-09-08T19:19:38.016Z,17.17
2018-09-08T19:22:07.598Z,17.13
2018-09-08T19:24:41.407Z,17.21
2018-09-08T19:27:10.300Z,17.26
2018-09-08T19:29:44.136Z,17.30
2018-09-08T19:32:12.922Z,17.30
2018-09-08T19:34:42.437Z,17.26
2018-09-08T19:37:11.516Z,17.26
2018-09-08T19:39:40.235Z,17.23
2018-09-08T19:42:09.364Z,17.24
2018-09-08T19:44:38.081Z,17.13
2018-09-08T19:47:12.092Z,16.99
2018-09-08T19:49:41.700Z,17.00
2018-09-08T19:52:14.579Z,16.97
2018-09-08T19:54:43.226Z,17.03
2018-09-08T19:57:18.318Z,17.00
2018-09-08T19:59:46.900Z,16.98
2018-09-08T20:02:16.236Z,16.97
2018-09-08T20:04:45.072Z,16.92
2018-09-08T20:07:15.070Z,16.89
2018-09-08T20:09:43.955Z,16.80
2018-09-08T20:12:12.927Z,16.75
2018-09-08T20:14:41.879Z,16.73
2018-09-08T20:17:10.799Z,16.70
2018-09-08T20:19:39.782Z,16.53
2018-09-08T20:22:09.895Z,16.44
2018-09-08T20:24:39.152Z,16.49
2018-09-08T20:27:07.790Z,16.51
2018-09-08T20:29:36.774Z,16.54
2018-09-08T20:32:05.332Z,16.57
2018-09-08T20:34:34.653Z,16.58
2018-09-08T20:37:03.240Z,16.54
2018-09-08T20:39:32.907Z,16.49
2018-09-08T20:42:02.388Z,16.41
2018-09-08T20:44:31.765Z,16.31
2018-09-08T20:47:00.709Z,16.32
2018-09-08T20:49:29.728Z,16.10
2018-09-08T20:51:58.637Z,16.02
2018-09-08T20:54:27.407Z,15.93
2018-09-08T20:56:56.053Z,15.87
2018-09-08T20:59:24.910Z,15.66
2018-09-08T21:01:54.066Z,15.66
2018-09-08T21:04:22.811Z,15.58
2018-09-08T21:06:51.409Z,15.51
2018-09-08T21:09:20.516Z,15.51
2018-09-08T21:11:49.984Z,15.37
2018-09-08T21:14:18.524Z,15.38
2018-09-08T21:16:47.075Z,15.45
2018-09-08T21:19:16.328Z,15.59
2018-09-08T21:21:45.218Z,15.64
2018-09-08T21:24:13.892Z,15.68
2018-09-08T21:26:42.525Z,15.69
2018-09-08T21:29:11.439Z,15.63
2018-09-08T21:31:40.120Z,15.62
2018-09-08T21:34:09.925Z,15.67
2018-09-08T21:36:39.565Z,15.65
2018-09-08T21:39:09.175Z,15.65
2018-09-08T21:41:37.999Z,15.70
2018-09-08T21:44:07.020Z,15.69
2018-09-08T21:46:35.916Z,15.62
2018-09-08T21:49:04.804Z,15.67
2018-09-08T21:51:34.112Z,15.63
2018-09-08T21:54:02.842Z,15.60
2018-09-08T21:56:31.456Z,15.60
2018-09-08T21:59:00.048Z,15.62
2018-09-08T22:01:29.287Z,15.60
2018-09-08T22:03:58.340Z,15.49
2018-09-08T22:06:27.351Z,15.48
2018-09-08T22:08:56.311Z,15.40
2018-09-08T22:11:24.983Z,15.37
2018-09-08T22:13:53.778Z,15.37
2018-09-08T22:16:22.349Z,15.37
2018-09-08T22:21:53.524Z,15.36
2018-09-08T22:24:22.167Z,15.38
2018-09-08T22:26:51.032Z,15.32
2018-09-08T22:29:19.855Z,15.28
2018-09-08T22:31:48.951Z,15.25
2018-09-08T22:34:18.160Z,15.25
2018-09-08T22:36:46.971Z,15.28
2018-09-08T22:39:15.985Z,14.40
2018-09-08T22:41:44.966Z,15.29
2018-09-08T22:44:14.290Z,15.28
2018-09-08T22:46:42.991Z,15.28
2018-09-08T22:49:12.231Z,15.25
2018-09-08T22:51:41.420Z,15.23
2018-09-08T22:54:09.945Z,15.26
2018-09-08T22:56:38.761Z,15.24
2018-09-08T22:59:08.833Z,15.22
2018-09-08T23:01:37.528Z,15.22
2018-09-08T23:04:06.447Z,15.23
2018-09-08T23:06:35.360Z,15.22
2018-09-08T23:09:04.831Z,15.22
2018-09-08T23:11:34.139Z,15.22
2018-09-08T23:14:03.035Z,15.22
2018-09-08T23:16:31.694Z,15.20
2018-09-08T23:19:00.379Z,15.17
2018-09-08T23:21:29.245Z,15.14
2018-09-08T23:23:57.903Z,15.15
2018-09-08T23:26:26.411Z,15.12
2018-09-08T23:28:55.348Z,15.18
2018-09-08T23:31:24.016Z,15.11
2018-09-08T23:33:53.212Z,15.11
2018-09-08T23:36:21.937Z,15.08
2018-09-08T23:38:50.705Z,15.04
2018-09-08T23:41:20.721Z,15.07
2018-09-08T23:43:49.722Z,15.04
2018-09-08T23:46:18.340Z,15.01
2018-09-08T23:48:47.062Z,14.96
2018-09-08T23:51:15.925Z,14.96
2018-09-08T23:53:45.118Z,14.92
2018-09-08T23:56:15.105Z,14.88
2018-09-08T23:58:44.063Z,14.86
